Time;durP1;ratioP1;P1;durP2;ratioP2;P2;SDS_P1;SDS_P2;PMS_P1;PMS_P2;Temp;Humidity;BMP_temperature;BMP_pressure;BME280_temperature;BME280_humidity;BME280_pressure;Samples;Min_cycle;Max_cycle;Signal;HPM_P1;HPM_P2
2021/12/07 00:03:49;;;;;;;9.90;3.97;;;;;;;2.44;97.51;99784.25;21028065;28;20492;-72
2021/12/07 00:13:52;;;;;;;6.38;3.33;;;;;;;2.30;98.09;99776.44;21029762;28;20059;-73
2021/12/07 00:23:54;;;;;;;7.50;3.83;;;;;;;2.31;98.05;99773.00;21026469;28;20044;-73
2021/12/07 00:35:00;;;;;;;9.07;3.88;;;;;;;2.35;98.31;99767.84;21024661;28;20131;-74
2021/12/07 00:44:40;;;;;;;8.10;4.70;;;;;;;2.27;98.63;99765.22;21023488;28;20106;-74
2021/12/07 00:54:42;;;;;;;7.22;3.80;;;;;;;2.36;99.23;99764.44;21023797;28;20091;-73
2021/12/07 01:04:51;;;;;;;6.47;3.63;;;;;;;2.35;100.00;99757.50;21025365;28;20121;-74
2021/12/07 01:25:14;;;;;;;7.55;3.42;;;;;;;2.47;99.50;99779.13;21023699;28;20101;-74
2021/12/07 02:05:58;;;;;;;7.28;3.85;;;;;;;2.53;100.00;99820.50;21019751;28;20098;-73
2021/12/07 02:16:01;;;;;;;7.47;3.83;;;;;;;2.58;100.00;99816.25;21032950;28;20048;-73
2021/12/07 02:26:02;;;;;;;7.93;3.65;;;;;;;2.68;100.00;99832.69;21037527;28;20496;-72
2021/12/07 02:36:05;;;;;;;6.65;3.65;;;;;;;2.79;100.00;99823.28;21033481;28;20044;-75
2021/12/07 02:46:07;;;;;;;6.90;3.75;;;;;;;2.69;100.00;99828.41;21035569;28;20560;-75
2021/12/07 02:56:09;;;;;;;5.72;2.47;;;;;;;2.48;100.00;99849.75;21035202;28;20047;-73
2021/12/07 03:26:32;;;;;;;7.93;3.80;;;;;;;2.63;100.00;99891.22;21031197;28;20102;-74
2021/12/07 03:36:34;;;;;;;8.45;3.65;;;;;;;2.41;100.00;99897.09;21029980;28;20041;-75
2021/12/07 03:46:35;;;;;;;6.82;3.33;;;;;;;2.38;100.00;99897.03;21028469;28;20049;-75
2021/12/07 03:56:37;;;;;;;6.93;2.70;;;;;;;2.36;100.00;99922.88;21029681;28;20059;-74
2021/12/07 04:06:40;;;;;;;7.30;2.65;;;;;;;2.45;100.00;99947.94;21028276;28;20105;-74
2021/12/07 04:16:42;;;;;;;4.40;1.42;;;;;;;2.46;100.00;99957.41;21026019;28;20052;-73
2021/12/07 04:26:44;;;;;;;4.38;2.00;;;;;;;2.57;100.00;99948.03;21027606;28;20046;-74
2021/12/07 04:36:45;;;;;;;7.68;3.13;;;;;;;2.70;100.00;99962.81;21025175;28;20543;-74
2021/12/07 05:07:34;;;;;;;6.75;3.60;;;;;;;2.70;100.00;99996.41;21020928;28;20048;-73
2021/12/07 05:17:58;;;;;;;10.88;3.90;;;;;;;2.78;100.00;99997.38;21022545;28;20052;-73
2021/12/07 05:38:19;;;;;;;10.60;3.35;;;;;;;3.17;100.00;100027.00;21023801;28;20105;-73
2021/12/07 05:48:21;;;;;;;7.65;2.97;;;;;;;3.31;100.00;100043.50;21032362;28;20109;-72
2021/12/07 05:58:22;;;;;;;7.93;2.70;;;;;;;3.48;100.00;100058.28;21037603;28;20105;-73
2021/12/07 06:08:23;;;;;;;8.07;2.85;;;;;;;3.50;100.00;100075.56;21037991;28;20451;-73
2021/12/07 06:18:25;;;;;;;9.82;2.70;;;;;;;3.37;100.00;100081.50;21037690;28;20044;-73
2021/12/07 06:28:26;;;;;;;7.28;2.85;;;;;;;3.08;100.00;100084.69;21034576;28;20110;-73
2021/12/07 06:38:30;;;;;;;8.75;3.00;;;;;;;2.90;100.00;100081.06;21036496;28;20044;-73
2021/12/07 06:48:32;;;;;;;9.77;3.13;;;;;;;2.76;100.00;100106.75;21035856;28;20056;-73
2021/12/07 06:58:35;;;;;;;8.38;2.95;;;;;;;2.75;100.00;100120.53;21031344;28;20052;-74
2021/12/07 07:08:37;;;;;;;12.15;3.15;;;;;;;2.69;100.00;100146.34;21038112;28;20492;-73
2021/12/07 07:18:39;;;;;;;15.38;3.83;;;;;;;2.84;100.00;100167.19;21072366;28;20048;-73
2021/12/07 07:28:41;;;;;;;10.18;3.70;;;;;;;3.04;100.00;100175.16;21070399;28;20048;-73
2021/12/07 07:38:42;;;;;;;11.13;4.25;;;;;;;2.93;100.00;100179.38;21054992;28;20047;-73
2021/12/07 07:48:45;;;;;;;13.25;3.97;;;;;;;2.74;100.00;100205.00;21070181;28;20484;-72
2021/12/07 07:58:47;;;;;;;10.35;2.83;;;;;;;2.58;100.00;100209.06;21068687;28;20089;-73
2021/12/07 08:08:48;;;;;;;13.98;3.35;;;;;;;2.81;100.00;100230.06;21048415;28;20060;-73
2021/12/07 08:18:52;;;;;;;11.23;2.83;;;;;;;3.08;100.00;100223.50;21023097;28;20048;-73
2021/12/07 08:28:56;;;;;;;13.77;2.97;;;;;;;3.40;100.00;100225.56;21060769;28;20056;-72
2021/12/07 08:38:58;;;;;;;10.60;3.03;;;;;;;3.48;99.65;100214.44;21059183;28;20048;-73
2021/12/07 08:49:00;;;;;;;9.32;2.83;;;;;;;3.30;99.29;100207.34;21059640;28;20059;-72
2021/12/07 09:09:24;;;;;;;14.55;3.08;;;;;;;3.54;98.71;100230.03;21016037;28;20087;-74
2021/12/07 09:19:26;;;;;;;11.98;2.50;;;;;;;3.72;97.66;100233.66;21016658;28;20090;-73
2021/12/07 09:29:27;;;;;;;15.27;4.30;;;;;;;4.08;95.76;100254.72;21016713;28;20114;-72
2021/12/07 09:39:30;;;;;;;12.02;3.33;;;;;;;3.94;96.10;100263.22;21013286;28;20049;-72
2021/12/07 09:49:31;;;;;;;13.82;3.25;;;;;;;4.15;95.35;100254.75;21000493;28;20053;-73
2021/12/07 09:59:33;;;;;;;14.82;3.15;;;;;;;4.40;93.31;100242.84;21015126;28;20087;-72
2021/12/07 10:09:36;;;;;;;12.15;3.45;;;;;;;4.59;92.56;100237.75;21014544;28;20056;-72
2021/12/07 10:19:44;;;;;;;10.55;3.05;;;;;;;4.76;91.85;100231.81;21013287;28;20078;-72
2021/12/07 10:29:51;;;;;;;12.60;3.10;;;;;;;4.84;90.54;100202.47;21013330;28;20102;-77
2021/12/07 10:39:57;;;;;;;8.07;2.25;;;;;;;5.06;88.51;100174.88;20985346;28;20101;-77
2021/12/07 10:50:02;;;;;;;15.48;2.63;;;;;;;5.29;87.79;100159.34;21004650;28;20105;-77
2021/12/07 11:00:03;;;;;;;;;;;;;;;5.25;83.81;100157.59;21033205;28;20089;-76
2021/12/07 11:10:18;;;;;;;11.27;2.30;;;;;;;5.26;85.15;100154.13;21027505;28;19920;-75
2021/12/07 11:20:20;;;;;;;12.03;4.17;;;;;;;5.31;85.50;100144.63;21023092;28;20052;-77
2021/12/07 11:30:28;;;;;;;18.60;7.45;;;;;;;5.49;86.57;100114.38;21038136;28;20101;-76
2021/12/07 11:40:34;;;;;;;15.48;3.90;;;;;;;5.65;85.92;100095.31;21023407;28;20456;-76
2021/12/07 11:50:54;;;;;;;9.73;2.85;;;;;;;5.87;83.14;100071.03;21018687;28;20048;-76
2021/12/07 12:00:57;;;;;;;8.70;2.55;;;;;;;6.10;80.74;100062.38;21022265;28;20102;-77
2021/12/07 12:11:16;;;;;;;10.90;2.53;;;;;;;6.62;75.39;100042.22;21023591;28;20094;-76
2021/12/07 12:21:32;;;;;;;8.60;1.88;;;;;;;6.17;74.72;100015.53;21020998;28;20044;-76
2021/12/07 12:31:50;;;;;;;10.23;2.20;;;;;;;6.46;74.67;100008.47;21017060;28;20474;-74
2021/12/07 12:42:01;;;;;;;6.00;2.00;;;;;;;6.15;74.04;100003.44;21037696;28;20114;-76
2021/12/07 12:52:03;;;;;;;8.65;2.22;;;;;;;6.12;75.73;99987.84;21017605;28;20052;-78
2021/12/07 13:02:05;;;;;;;7.68;2.08;;;;;;;6.46;73.61;99977.28;21018769;28;20131;-77
2021/12/07 13:12:18;;;;;;;10.95;2.60;;;;;;;6.49;74.24;99964.25;21013279;28;20117;-77
2021/12/07 13:22:19;;;;;;;13.05;2.42;;;;;;;6.29;74.26;99951.38;21014991;28;20060;-77
2021/12/07 13:32:21;;;;;;;9.85;2.40;;;;;;;6.23;75.73;99926.28;21016613;28;20613;-76
2021/12/07 13:42:28;;;;;;;12.43;2.58;;;;;;;6.29;75.76;99902.84;21015147;28;20048;-77
2021/12/07 13:52:33;;;;;;;10.77;3.20;;;;;;;6.47;73.61;99900.97;21013674;28;20079;-78
2021/12/07 14:02:35;;;;;;;;;;;;;;;6.45;71.91;99902.72;21014162;28;20555;-76
2021/12/07 14:12:37;;;;;;;19.23;5.15;;;;;;;6.36;72.10;99877.66;21029600;28;19954;-76
2021/12/07 14:22:45;;;;;;;9.10;3.20;;;;;;;5.99;71.67;99851.03;21031414;28;20047;-77
2021/12/07 14:32:46;;;;;;;10.65;2.70;;;;;;;5.84;72.20;99832.03;21030832;28;20044;-77
2021/12/07 14:42:48;;;;;;;10.57;3.78;;;;;;;5.51;73.74;99839.97;21027258;28;20398;-76
2021/12/07 14:52:49;;;;;;;7.60;2.08;;;;;;;5.15;77.11;99834.06;21029289;28;20615;-76
2021/12/07 15:02:51;;;;;;;7.60;3.30;;;;;;;5.05;78.10;99807.28;21029042;28;20166;-76
2021/12/07 15:12:53;;;;;;;6.63;1.88;;;;;;;4.96;75.87;99811.63;20987908;28;20197;-76
2021/12/07 15:22:55;;;;;;;7.97;2.60;;;;;;;4.92;76.41;99783.97;20978073;28;20113;-76
2021/12/07 15:32:56;;;;;;;8.23;2.83;;;;;;;4.97;77.92;99764.06;21000318;28;20459;-76
2021/12/07 15:42:58;;;;;;;9.32;2.58;;;;;;;5.00;76.39;99764.06;20986391;28;20089;-75
2021/12/07 15:53:09;;;;;;;12.43;3.72;;;;;;;4.55;80.17;99729.59;20987539;28;20048;-76
2021/12/07 16:03:16;;;;;;;12.45;5.50;;;;;;;4.11;83.13;99704.59;21006300;28;20048;-76
2021/12/07 16:13:26;;;;;;;12.30;6.00;;;;;;;4.03;81.17;99698.59;21000072;28;20048;-77
2021/12/07 16:23:30;;;;;;;10.98;4.28;;;;;;;4.04;78.87;99702.91;21038790;28;20073;-76
2021/12/07 16:33:32;;;;;;;28.87;11.27;;;;;;;3.84;81.02;99671.84;21006720;28;20051;-76
2021/12/07 16:43:33;;;;;;;16.83;6.78;;;;;;;3.54;81.73;99646.78;21000261;28;20048;-76
2021/12/07 16:53:35;;;;;;;14.70;5.93;;;;;;;3.38;83.62;99629.53;21033234;28;20176;-75
2021/12/07 17:03:38;;;;;;;7.95;2.72;;;;;;;3.33;81.63;99614.00;21012182;28;20044;-76
2021/12/07 17:13:40;;;;;;;8.32;2.60;;;;;;;3.31;80.64;99590.72;21022226;28;20051;-76
2021/12/07 17:23:42;;;;;;;10.90;3.95;;;;;;;3.27;81.04;99582.97;21027966;28;20054;-76
2021/12/07 17:33:44;;;;;;;11.02;5.07;;;;;;;3.25;79.74;99577.75;21015188;28;20109;-76
2021/12/07 17:43:49;;;;;;;13.70;3.85;;;;;;;3.12;82.68;99572.59;20986955;28;20555;-77
2021/12/07 17:53:54;;;;;;;8.10;2.90;;;;;;;3.03;83.95;99530.34;21028264;28;20423;-75
2021/12/07 18:03:56;;;;;;;9.60;2.70;;;;;;;2.97;83.65;99532.03;21020376;28;20053;-76
2021/12/07 18:13:58;;;;;;;14.05;3.53;;;;;;;2.88;85.17;99506.22;20974341;28;20093;-76
2021/12/07 18:24:00;;;;;;;10.90;4.00;;;;;;;2.76;84.18;99481.19;20998506;28;20047;-76
2021/12/07 18:34:02;;;;;;;10.65;4.18;;;;;;;2.67;85.54;99456.19;21016420;28;20101;-77
2021/12/07 18:44:03;;;;;;;11.10;3.63;;;;;;;2.62;86.51;99437.25;21007211;28;20052;-76
2021/12/07 18:54:05;;;;;;;8.50;3.67;;;;;;;2.56;86.36;99416.56;21013931;28;20047;-76
2021/12/07 19:04:07;;;;;;;7.38;3.10;;;;;;;2.60;85.81;99382.13;21003856;28;20044;-76
2021/12/07 19:14:10;;;;;;;12.40;3.90;;;;;;;2.60;86.51;99348.53;20992754;28;20234;-76
2021/12/07 19:24:12;;;;;;;7.35;2.55;;;;;;;2.60;85.98;99321.84;21015023;28;20049;-75
2021/12/07 19:34:13;;;;;;;10.95;4.35;;;;;;;2.57;86.32;99309.75;20994930;28;20056;-76
2021/12/07 19:44:15;;;;;;;12.25;4.80;;;;;;;2.56;86.65;99287.38;21012802;28;20097;-75
2021/12/07 19:54:19;;;;;;;19.27;6.15;;;;;;;2.55;86.29;99237.44;21016292;28;20060;-76
2021/12/07 20:04:21;;;;;;;7.38;2.90;;;;;;;2.62;84.67;99199.50;21014830;28;20057;-75
2021/12/07 20:14:26;;;;;;;8.18;3.20;;;;;;;2.58;84.82;99161.59;21021710;28;20052;-76
2021/12/07 20:24:43;;;;;;;10.38;4.72;;;;;;;2.62;85.63;99162.47;21016221;28;20606;-76
2021/12/07 20:34:45;;;;;;;13.82;5.07;;;;;;;2.52;85.56;99182.31;20987942;28;20400;-74
2021/12/07 20:44:47;;;;;;;14.98;5.07;;;;;;;2.45;85.91;99173.72;21014024;28;20040;-75
2021/12/07 20:54:49;;;;;;;28.25;11.10;;;;;;;2.41;85.80;99163.41;21031873;28;20052;-75
2021/12/07 21:04:54;;;;;;;19.92;7.00;;;;;;;2.22;89.41;99155.69;21008088;28;20040;-75
2021/12/07 21:14:56;;;;;;;19.00;7.45;;;;;;;2.22;88.64;99129.88;21012594;28;20098;-76
2021/12/07 21:24:58;;;;;;;10.27;4.05;;;;;;;2.31;89.22;99080.78;21009874;28;20052;-75
2021/12/07 21:35:02;;;;;;;11.07;4.20;;;;;;;2.48;87.53;99096.19;21010961;28;20109;-75
2021/12/07 21:45:06;;;;;;;;;;;;;;;2.69;85.96;99100.44;21008028;28;20547;-77
2021/12/07 21:55:11;;;;;;;16.27;6.50;;;;;;;2.82;85.86;99091.72;21013503;28;19967;-76
2021/12/07 22:05:13;;;;;;;;;;;;;;;2.85;87.65;99082.25;21008437;28;20045;-75
2021/12/07 22:15:15;;;;;;;20.23;7.43;;;;;;;2.89;85.84;99063.28;21013234;28;20396;-76
2021/12/07 22:25:17;;;;;;;18.65;7.53;;;;;;;2.82;88.24;99046.91;21008812;28;20044;-76
2021/12/07 22:35:18;;;;;;;9.48;4.05;;;;;;;2.60;89.73;99041.03;21028894;28;20883;-76
2021/12/07 22:45:20;;;;;;;10.90;4.20;;;;;;;2.65;92.00;99028.94;21023246;28;20060;-76
2021/12/07 22:55:22;;;;;;;13.43;5.35;;;;;;;2.66;90.44;98994.47;21022116;28;20064;-76
2021/12/07 23:05:27;;;;;;;47.63;15.48;;;;;;;2.68;91.69;98942.78;21022429;28;20439;-75
2021/12/07 23:15:29;;;;;;;58.25;23.67;;;;;;;2.70;92.08;98916.06;21025234;28;20056;-78
2021/12/07 23:25:33;;;;;;;35.60;15.25;;;;;;;2.82;92.62;98890.09;21024794;28;20052;-76
2021/12/07 23:35:37;;;;;;;5.80;2.97;;;;;;;3.02;90.25;98864.09;21024763;28;20051;-76
2021/12/07 23:45:40;;;;;;;10.97;3.60;;;;;;;3.16;88.72;98886.34;21023583;28;20052;-80
2021/12/07 23:55:42;;;;;;;10.90;4.63;;;;;;;3.05;92.47;98883.88;21023395;28;20191;-77
